FAWB/PRY METAR and TAF weather

Enter ICAO airport designator
Station Type Date Time Source
FAWB METAR 2019/06/18 13:00 UTC NOAA

FAWB 181300Z 11006KT CAVOK 24/M04 Q1028


Station Type Date Time Source
FAWB Decoded METAR 2019/06/18 13:00 UTC NOAA

Wonderboom / Pretoria, South Africa (FAWB) 25-39S 028-13E
Jun 18, 2019 - 09:00 AM EDT / 2019.06.18 1300 UTC
Wind: from the ESE (110 degrees) at 7 MPH (6 KT):0
Visibility: greater than 7 mile(s):0
Temperature: 75 F (24 C)
Dew Point: 24 F (-4 C)
Relative Humidity: 15%
Pressure (altimeter): 30.36 in. Hg (1028 hPa)
ob: FAWB 181300Z 11006KT CAVOK 24/M04 Q1028
cycle: 13

Station Type Date Time Source
FAWB TAF 2019/01/10 10:00 UTC NOAA

TAF FAWB 101000Z 1010/1018 30007KT CAVOK
BECMG 1014/1016 SCT035 PROB30
TEMPO 1016/1018 -TSRA FEW040CB TX31/1013Z TN26/1018Z

Example: see airport list